createdAt,value
2018-08-04T00:00:17.760Z,577.2
2018-08-04T00:01:19.940Z,577.2
2018-08-04T00:02:22.396Z,577.3
2018-08-04T00:03:24.033Z,577.3
2018-08-04T00:04:25.949Z,577.7
2018-08-04T00:05:28.131Z,577.7
2018-08-04T00:06:30.575Z,577.6
2018-08-04T00:07:32.724Z,577.9
2018-08-04T00:08:34.637Z,577.6
2018-08-04T00:09:36.526Z,577.8
2018-08-04T00:10:38.706Z,578
2018-08-04T00:11:40.893Z,577.6
2018-08-04T00:12:43.041Z,577.7
2018-08-04T00:13:45.217Z,577.8
2018-08-04T00:14:47.384Z,577.7
2018-08-04T00:15:49.002Z,578.2
2018-08-04T00:16:51.450Z,577.9
2018-08-04T00:17:53.911Z,578
2018-08-04T00:18:55.826Z,578.1
2018-08-04T00:19:58.012Z,578
2018-08-04T00:21:00.457Z,578
2018-08-04T00:22:02.904Z,578.1
2018-08-04T00:23:05.084Z,578.3
2018-08-04T00:24:07.288Z,578
2018-08-04T00:25:09.740Z,578.1
2018-08-04T00:26:12.194Z,578.7
2018-08-04T00:27:14.364Z,578.5
2018-08-04T00:28:16.273Z,578.2
2018-08-04T00:29:18.466Z,578.9
2018-08-04T00:30:20.363Z,578.6
2018-08-04T00:31:22.802Z,578.7
2018-08-04T00:32:25.247Z,578.8
2018-08-04T00:33:27.698Z,578.8
2018-08-04T00:34:29.882Z,578.9
2018-08-04T00:35:32.068Z,578.9
2018-08-04T00:36:33.955Z,578.6
2018-08-04T00:37:36.128Z,578.4
2018-08-04T00:38:38.590Z,578.4
2018-08-04T00:39:41.038Z,578.3
2018-08-04T00:40:42.938Z,578.4
2018-08-04T00:41:45.134Z,578.4
2018-08-04T00:42:47.049Z,578.4
2018-08-04T00:43:49.486Z,578.8
2018-08-04T00:44:51.941Z,578.6
2018-08-04T00:45:53.851Z,578.5
2018-08-04T00:46:56.308Z,578.7
2018-08-04T00:47:58.755Z,578.9
2018-08-04T00:49:00.966Z,578.9
2018-08-04T00:50:03.415Z,579.2
2018-08-04T00:51:05.308Z,579.1
2018-08-04T00:52:07.746Z,579
2018-08-04T00:53:09.926Z,579.2
2018-08-04T00:54:11.838Z,579.3
2018-08-04T00:55:14.277Z,579.1
2018-08-04T00:56:16.718Z,579.3
2018-08-04T00:57:19.155Z,579.1
2018-08-04T00:58:21.617Z,579.1
2018-08-04T00:59:23.525Z,579.2
2018-08-04T01:00:25.722Z,579.5
2018-08-04T01:01:28.161Z,579.5
2018-08-04T01:02:30.612Z,579.6
2018-08-04T01:03:33.045Z,579.8
2018-08-04T01:04:35.229Z,579.4
2018-08-04T01:05:37.425Z,579.5
2018-08-04T01:06:39.877Z,579.3
2018-08-04T01:07:41.780Z,579.8
2018-08-04T01:08:43.695Z,579.4
2018-08-04T01:09:45.876Z,579.4
2018-08-04T01:10:48.068Z,579.7
2018-08-04T01:11:49.948Z,579.7
2018-08-04T01:12:52.141Z,579.4
2018-08-04T01:13:54.332Z,579.5
2018-08-04T01:14:56.212Z,579.4
2018-08-04T01:15:58.384Z,579.9
2018-08-04T01:17:00.860Z,580
2018-08-04T01:18:03.287Z,580.1
2018-08-04T01:19:05.464Z,579.8
2018-08-04T01:20:07.909Z,580
2018-08-04T01:21:09.799Z,580
2018-08-04T01:22:12.240Z,580.1
2018-08-04T01:23:14.688Z,579.9
2018-08-04T01:24:17.135Z,580.1
2018-08-04T01:25:19.331Z,579.6
2018-08-04T01:26:21.767Z,579.3
2018-08-04T01:27:24.209Z,579.4
2018-08-04T01:28:26.379Z,579.7
2018-08-04T01:29:28.821Z,579.4
2018-08-04T01:30:31.283Z,579.7
2018-08-04T01:31:33.467Z,579.7
2018-08-04T01:32:35.647Z,579.7
2018-08-04T01:33:38.094Z,579.6
2018-08-04T01:34:40.265Z,579.5
2018-08-04T01:35:42.154Z,579.5
2018-08-04T01:36:44.330Z,579.5
2018-08-04T01:37:46.500Z,579.7
2018-08-04T01:38:48.692Z,579.8
2018-08-04T01:39:50.600Z,579.8
2018-08-04T01:40:52.771Z,579.6
2018-08-04T01:41:55.237Z,579.7
2018-08-04T01:42:57.413Z,580.1
2018-08-04T01:43:59.590Z,579.8
2018-08-04T01:45:02.037Z,579.9
2018-08-04T01:46:04.214Z,579.9
2018-08-04T01:47:06.662Z,580.1
2018-08-04T01:48:08.842Z,579.6
2018-08-04T01:49:11.019Z,579.8
2018-08-04T01:50:13.457Z,579.8
2018-08-04T01:51:15.910Z,579.7
2018-08-04T01:52:17.780Z,579.8
2018-08-04T01:53:19.436Z,579.6
2018-08-04T01:54:21.609Z,579.6
2018-08-04T01:55:23.756Z,579.7
2018-08-04T01:56:25.632Z,579.4
2018-08-04T01:57:28.091Z,579.7
2018-08-04T01:58:30.529Z,580.1
2018-08-04T01:59:32.679Z,579.6
2018-08-04T02:00:34.866Z,579.8
2018-08-04T02:01:37.322Z,579.7
2018-08-04T02:02:39.515Z,580.1
2018-08-04T02:03:41.672Z,579.9
2018-08-04T02:04:44.123Z,580.2
2018-08-04T02:05:46.288Z,580.2
2018-08-04T02:06:48.783Z,580.2
2018-08-04T02:07:50.975Z,580.3
2018-08-04T02:08:53.437Z,580.3
2018-08-04T02:09:55.624Z,580.4
2018-08-04T02:10:57.839Z,580.4
2018-08-04T02:12:00.028Z,580.1
2018-08-04T02:13:02.462Z,580.4
2018-08-04T02:14:04.632Z,580.4
2018-08-04T02:15:06.532Z,580.6
2018-08-04T02:16:08.683Z,580.5
2018-08-04T02:17:10.306Z,580.8
2018-08-04T02:18:12.765Z,580.8
2018-08-04T02:19:15.223Z,580.8
2018-08-04T02:20:16.880Z,580.4
2018-08-04T02:21:19.049Z,580.6
2018-08-04T02:22:20.969Z,580.7
2018-08-04T02:23:23.144Z,580.4
2018-08-04T02:24:25.315Z,580.3
2018-08-04T02:25:27.489Z,580.3
2018-08-04T02:26:29.674Z,580.1
2018-08-04T02:27:31.865Z,580.7
2018-08-04T02:28:34.048Z,580
2018-08-04T02:29:36.496Z,580.2
2018-08-04T02:30:38.644Z,580
2018-08-04T02:31:40.541Z,580.4
2018-08-04T02:32:42.432Z,580.4
2018-08-04T02:33:44.309Z,580.7
2018-08-04T02:34:46.500Z,580.6
2018-08-04T02:35:48.988Z,580.6
2018-08-04T02:36:51.155Z,580.8
2018-08-04T02:37:53.319Z,581
2018-08-04T02:38:55.490Z,581.2
2018-08-04T02:39:57.927Z,581.4
2018-08-04T02:41:00.113Z,581.1
2018-08-04T02:42:02.039Z,581.1
2018-08-04T02:43:04.207Z,581.2
2018-08-04T02:44:06.645Z,581.1
2018-08-04T02:45:08.817Z,580.9
2018-08-04T02:46:11.255Z,581.3
2018-08-04T02:47:13.407Z,581.2
2018-08-04T02:48:15.326Z,581.3
2018-08-04T02:49:17.510Z,581.3
2018-08-04T02:50:19.723Z,581.2
2018-08-04T02:51:21.892Z,581.3
2018-08-04T02:52:24.330Z,581.6
2018-08-04T02:53:26.495Z,581.6
2018-08-04T02:54:28.665Z,581.6
2018-08-04T02:55:30.848Z,581.8
2018-08-04T02:56:32.746Z,581.6
2018-08-04T02:57:35.204Z,581.8
2018-08-04T02:58:37.657Z,581.8
2018-08-04T02:59:40.099Z,581.4
2018-08-04T03:00:42.285Z,581.3
2018-08-04T03:01:44.506Z,581.3
2018-08-04T03:02:46.681Z,581.6
2018-08-04T03:03:48.875Z,581.3
2018-08-04T03:04:51.049Z,581.5
2018-08-04T03:05:53.206Z,581.1
2018-08-04T03:06:55.376Z,581.2
2018-08-04T03:07:56.749Z,581
2018-08-04T03:08:58.916Z,580.6
2018-08-04T03:10:00.832Z,580.5
2018-08-04T03:11:03.041Z,581
2018-08-04T03:12:04.936Z,580.8
2018-08-04T03:13:07.400Z,580.5
2018-08-04T03:14:09.852Z,580.6
2018-08-04T03:15:12.026Z,581.1
2018-08-04T03:16:14.197Z,580.8
2018-08-04T03:17:16.102Z,581
2018-08-04T03:18:18.017Z,580.9
2018-08-04T03:19:20.463Z,581.2
2018-08-04T03:20:21.794Z,580.9
2018-08-04T03:21:24.245Z,581.1
2018-08-04T03:22:26.446Z,580.8
2018-08-04T03:23:28.616Z,580.6
2018-08-04T03:24:31.084Z,581
2018-08-04T03:25:33.268Z,580.6
2018-08-04T03:26:35.741Z,580.8
2018-08-04T03:27:37.911Z,580.3
2018-08-04T03:28:40.380Z,580.7
2018-08-04T03:29:42.551Z,581.1
2018-08-04T03:30:45.006Z,580.6
2018-08-04T03:31:47.179Z,580.4
2018-08-04T03:32:49.068Z,580.6
2018-08-04T03:33:51.252Z,580.1
2018-08-04T03:34:53.430Z,580.4
2018-08-04T03:35:55.597Z,580.4
2018-08-04T03:36:57.776Z,579.9
2018-08-04T03:37:59.680Z,580.3
2018-08-04T03:39:01.827Z,580
2018-08-04T03:40:04.000Z,579.7
2018-08-04T03:41:06.174Z,580
2018-08-04T03:42:07.843Z,580.1
2018-08-04T03:43:09.713Z,580.1
2018-08-04T03:44:12.162Z,579.6
2018-08-04T03:45:14.325Z,579.7
2018-08-04T03:46:16.766Z,579.5
2018-08-04T03:47:19.214Z,579.4
2018-08-04T03:48:21.656Z,579.3
2018-08-04T03:49:23.835Z,579.3
2018-08-04T03:50:26.284Z,579.7
2018-08-04T03:51:28.478Z,579.4
2018-08-04T03:52:30.647Z,579.6
2018-08-04T03:53:32.551Z,579.4
2018-08-04T03:54:34.735Z,579.6
2018-08-04T03:55:37.174Z,579.8
2018-08-04T03:56:39.066Z,579.6
2018-08-04T03:57:41.236Z,579.7
2018-08-04T03:58:43.419Z,579.6
2018-08-04T03:59:46.210Z,579.3
2018-08-04T04:00:48.701Z,579.5
2018-08-04T04:01:51.155Z,579.5
2018-08-04T04:02:53.314Z,579
2018-08-04T04:03:55.500Z,579.1
2018-08-04T04:04:57.946Z,579
2018-08-04T04:06:00.129Z,579
2018-08-04T04:07:02.589Z,579
2018-08-04T04:08:04.758Z,579
2018-08-04T04:09:07.202Z,579
2018-08-04T04:10:09.656Z,578.9
2018-08-04T04:11:11.826Z,579
2018-08-04T04:12:14.271Z,579.1
2018-08-04T04:13:16.457Z,578.9
2018-08-04T04:14:18.608Z,579.1
2018-08-04T04:15:20.776Z,579.1
2018-08-04T04:16:22.648Z,579.2
2018-08-04T04:17:24.531Z,578.9
2018-08-04T04:18:26.446Z,579
2018-08-04T04:19:28.900Z,579
2018-08-04T04:20:30.810Z,578.7
2018-08-04T04:21:33.251Z,578.7
2018-08-04T04:22:35.701Z,578.8
2018-08-04T04:23:37.336Z,578.3
2018-08-04T04:24:39.800Z,578.4
2018-08-04T04:25:41.982Z,578.7
2018-08-04T04:26:44.440Z,578.5
2018-08-04T04:27:46.886Z,578.5
2018-08-04T04:28:49.044Z,578.6
2018-08-04T04:29:51.209Z,578.7
2018-08-04T04:30:53.387Z,578
2018-08-04T04:31:55.841Z,578.2
2018-08-04T04:32:58.286Z,578.2
2018-08-04T04:34:00.193Z,577.9
2018-08-04T04:35:02.648Z,577.8
2018-08-04T04:36:04.822Z,578
2018-08-04T04:37:06.975Z,577.8
2018-08-04T04:38:09.133Z,577.7
2018-08-04T04:39:11.591Z,577.9
2018-08-04T04:40:13.770Z,577.9
2018-08-04T04:41:15.925Z,577.9
2018-08-04T04:42:18.386Z,578.1
2018-08-04T04:43:20.559Z,578.1
2018-08-04T04:44:22.476Z,578.1
2018-08-04T04:45:24.346Z,578
2018-08-04T04:46:26.791Z,577.8
2018-08-04T04:47:29.119Z,578.1
2018-08-04T04:48:32.228Z,578
2018-08-04T04:49:33.805Z,577.9
2018-08-04T04:50:36.280Z,578
2018-08-04T04:51:38.768Z,578
2018-08-04T04:52:40.930Z,578.6
2018-08-04T04:53:43.103Z,578.2
2018-08-04T04:54:45.295Z,578
2018-08-04T04:55:47.457Z,578
2018-08-04T04:56:49.637Z,578.2
2018-08-04T04:57:52.089Z,577.9
2018-08-04T04:58:54.283Z,577.9
2018-08-04T04:59:56.465Z,577.7
2018-08-04T05:00:58.922Z,577.6
2018-08-04T05:02:01.736Z,578
2018-08-04T05:03:03.983Z,577.8
2018-08-04T05:04:06.437Z,578.1
2018-08-04T05:05:08.364Z,578.1
2018-08-04T05:06:10.873Z,578.2
2018-08-04T05:07:13.333Z,577.8
2018-08-04T05:08:15.796Z,577.7
2018-08-04T05:09:17.728Z,577.5
2018-08-04T05:10:20.205Z,578
2018-08-04T05:11:22.697Z,577.7
2018-08-04T05:12:25.205Z,577.5
2018-08-04T05:13:27.317Z,577.8
2018-08-04T05:14:29.516Z,577.8
2018-08-04T05:15:31.694Z,577.5
2018-08-04T05:16:34.141Z,577.5
2018-08-04T05:17:36.323Z,577.7
2018-08-04T05:18:38.759Z,578.1
2018-08-04T05:19:41.201Z,577.7
2018-08-04T05:20:43.649Z,578
2018-08-04T05:21:45.846Z,578.1
2018-08-04T05:22:48.017Z,578
2018-08-04T05:23:50.205Z,577.6
2018-08-04T05:24:52.107Z,577.8
2018-08-04T05:25:54.024Z,578.1
2018-08-04T05:26:56.209Z,578.2
2018-08-04T05:27:58.368Z,577.9
2018-08-04T05:29:00.816Z,578.1
2018-08-04T05:30:02.154Z,577.4
2018-08-04T05:31:04.620Z,577.9
2018-08-04T05:32:07.201Z,577.5
2018-08-04T05:33:09.701Z,577.4
2018-08-04T05:34:11.866Z,577.5
2018-08-04T05:35:14.022Z,577.2
2018-08-04T05:36:16.525Z,577
2018-08-04T05:37:19.115Z,576.7
2018-08-04T05:38:21.294Z,577
2018-08-04T05:39:23.752Z,576.9
2018-08-04T05:40:25.629Z,576.8
2018-08-04T05:41:27.807Z,576.8
2018-08-04T05:42:30.264Z,576.7
2018-08-04T05:43:33.454Z,576.2
2018-08-04T05:44:35.656Z,576.2
2018-08-04T05:45:37.829Z,575.8
2018-08-04T05:46:40.036Z,576.1
2018-08-04T05:47:41.954Z,576.1
2018-08-04T05:48:44.409Z,576.1
2018-08-04T05:49:46.870Z,575.8
2018-08-04T05:50:49.085Z,575.9
2018-08-04T05:51:51.254Z,575.7
2018-08-04T05:52:53.426Z,575.9
2018-08-04T05:53:55.613Z,576.3
2018-08-04T05:54:57.498Z,576.3
2018-08-04T05:55:59.399Z,576.3
2018-08-04T05:57:01.561Z,576.6
2018-08-04T05:58:03.468Z,576.5
2018-08-04T05:59:05.961Z,576.4
2018-08-04T06:00:08.416Z,576.3
2018-08-04T06:01:10.114Z,576.4
2018-08-04T06:02:12.588Z,576.3
2018-08-04T06:03:15.236Z,576.1
2018-08-04T06:04:17.510Z,576.2
2018-08-04T06:05:19.423Z,576
2018-08-04T06:06:21.597Z,576.2
2018-08-04T06:07:24.051Z,576.3
2018-08-04T06:08:26.490Z,576.1
2018-08-04T06:09:28.658Z,576.2
2018-08-04T06:10:30.276Z,576
2018-08-04T06:11:32.460Z,575.9
2018-08-04T06:12:34.911Z,576.3
2018-08-04T06:13:37.087Z,575.6
2018-08-04T06:14:39.537Z,575.6
2018-08-04T06:15:41.707Z,575.7
2018-08-04T06:16:43.920Z,575.8
2018-08-04T06:17:46.089Z,575.9
2018-08-04T06:18:48.552Z,575.8
2018-08-04T06:19:50.994Z,575.8
2018-08-04T06:20:52.929Z,575.6
2018-08-04T06:21:55.179Z,575.8
2018-08-04T06:22:57.636Z,575.8
2018-08-04T06:24:00.106Z,575.5
2018-08-04T06:25:02.010Z,575.7
2018-08-04T06:26:04.522Z,575.7
2018-08-04T06:27:06.424Z,576.1
2018-08-04T06:28:08.692Z,575.6
2018-08-04T06:29:10.925Z,575.3
2018-08-04T06:30:13.048Z,575.4
2018-08-04T06:31:15.229Z,575.5
2018-08-04T06:32:17.686Z,575.4
2018-08-04T06:33:20.168Z,575.7
2018-08-04T06:34:22.629Z,575.4
2018-08-04T06:35:25.086Z,575.3
2018-08-04T06:36:27.536Z,575.4
2018-08-04T06:37:29.729Z,575.6
2018-08-04T06:38:31.371Z,575.2
2018-08-04T06:39:33.825Z,575.2
2018-08-04T06:40:36.277Z,575.5
2018-08-04T06:41:38.361Z,575.6
2018-08-04T06:42:40.875Z,575.2
2018-08-04T06:43:43.110Z,575.4
2018-08-04T06:44:45.027Z,575.5
2018-08-04T06:45:47.232Z,575.3
2018-08-04T06:46:49.393Z,575.3
2018-08-04T06:47:51.892Z,575.2
2018-08-04T06:48:54.340Z,575
2018-08-04T06:49:56.536Z,574.8
2018-08-04T06:50:58.711Z,575.1
2018-08-04T06:52:01.175Z,575.2
2018-08-04T06:53:03.637Z,574.8
2018-08-04T06:54:06.105Z,574.9
2018-08-04T06:55:08.303Z,574.5
2018-08-04T06:56:10.477Z,574.9
2018-08-04T06:57:12.357Z,574.6
2018-08-04T06:58:14.360Z,574.8
2018-08-04T06:59:16.807Z,574.7
2018-08-04T07:00:19.249Z,575.2
2018-08-04T07:01:21.714Z,575.3
2018-08-04T07:02:23.867Z,575.2
2018-08-04T07:03:25.748Z,575.6
2018-08-04T07:04:28.210Z,575.9
2018-08-04T07:05:30.399Z,575.8
2018-08-04T07:06:32.862Z,576.1
2018-08-04T07:07:34.800Z,576.1
2018-08-04T07:08:37.005Z,575.8
2018-08-04T07:09:39.467Z,575.7
2018-08-04T07:10:41.093Z,575.4
2018-08-04T07:11:43.306Z,575.5
2018-08-04T07:12:45.756Z,575.4
2018-08-04T07:13:48.016Z,575.2
2018-08-04T07:14:50.481Z,575.1
2018-08-04T07:15:52.663Z,575.1
2018-08-04T07:16:55.127Z,575.1
2018-08-04T07:17:57.589Z,575.4
2018-08-04T07:18:59.778Z,575.5
2018-08-04T07:20:01.937Z,575.3
2018-08-04T07:21:03.823Z,575.1
2018-08-04T07:22:06.283Z,575.4
2018-08-04T07:23:08.160Z,575.1
2018-08-04T07:24:10.346Z,575
2018-08-04T07:25:11.958Z,574.7
2018-08-04T07:26:14.142Z,574.9
2018-08-04T07:27:16.024Z,574.5
2018-08-04T07:28:17.928Z,574.5
2018-08-04T07:29:19.561Z,574.9
2018-08-04T07:30:22.028Z,574.8
2018-08-04T07:31:24.490Z,574.9
2018-08-04T07:32:26.637Z,574.7
2018-08-04T07:33:29.088Z,575
2018-08-04T07:34:31.278Z,574.9
2018-08-04T07:35:33.464Z,574.9
2018-08-04T07:36:36.122Z,574.9
2018-08-04T07:37:38.579Z,574.9
2018-08-04T07:38:40.747Z,575
2018-08-04T07:39:42.917Z,575
2018-08-04T07:40:45.105Z,574.8
2018-08-04T07:41:47.567Z,575.3
2018-08-04T07:42:49.713Z,575.1
2018-08-04T07:43:52.166Z,575
2018-08-04T07:44:54.616Z,575.1
2018-08-04T07:45:57.075Z,575.1
2018-08-04T07:46:59.537Z,574.8
2018-08-04T07:48:01.983Z,575.1
2018-08-04T07:49:04.603Z,574.7
2018-08-04T07:50:06.938Z,575.1
2018-08-04T07:51:09.114Z,574.8
2018-08-04T07:52:11.552Z,575
2018-08-04T07:53:13.700Z,574.9
2018-08-04T07:54:16.155Z,574.6
2018-08-04T07:55:18.636Z,575
2018-08-04T07:56:21.087Z,574.9
2018-08-04T07:57:23.561Z,574.9
2018-08-04T07:58:26.015Z,575
2018-08-04T07:59:28.452Z,574.8
2018-08-04T08:00:30.707Z,574.9
2018-08-04T08:01:32.887Z,575
2018-08-04T08:02:34.797Z,574.3
2018-08-04T08:03:36.968Z,574.7
2018-08-04T08:04:39.139Z,574.5
2018-08-04T08:05:41.614Z,574.6
2018-08-04T08:06:44.079Z,574.4
2018-08-04T08:07:46.614Z,574.2
2018-08-04T08:08:48.815Z,574.2
2018-08-04T08:09:51.295Z,574.4
2018-08-04T08:10:54.117Z,574.5
2018-08-04T08:11:56.045Z,574.6
2018-08-04T08:12:58.501Z,574.3
2018-08-04T08:14:00.954Z,574.4
2018-08-04T08:15:02.866Z,574.8
2018-08-04T08:16:05.311Z,574.6
2018-08-04T08:17:07.500Z,574.9
2018-08-04T08:18:09.954Z,574.7
2018-08-04T08:19:12.416Z,574.7
2018-08-04T08:20:14.592Z,574.7
2018-08-04T08:21:16.667Z,574.5
2018-08-04T08:22:19.123Z,574.7
2018-08-04T08:23:21.672Z,574.8
2018-08-04T08:24:23.577Z,574.8
2018-08-04T08:25:26.039Z,574.9
2018-08-04T08:26:28.502Z,574.7
2018-08-04T08:27:30.680Z,575.1
2018-08-04T08:28:33.130Z,574.6
2018-08-04T08:29:35.307Z,574.7
2018-08-04T08:30:37.486Z,574.9
2018-08-04T08:31:40.330Z,574.7
2018-08-04T08:32:42.843Z,574.9
2018-08-04T08:33:45.073Z,574.7
2018-08-04T08:34:47.251Z,575.1
2018-08-04T08:35:49.701Z,574.9
2018-08-04T08:36:52.167Z,574.8
2018-08-04T08:37:53.782Z,574.7
2018-08-04T08:38:55.946Z,574.7
2018-08-04T08:39:58.141Z,575.1
2018-08-04T08:41:00.593Z,575
2018-08-04T08:42:03.046Z,575.3
2018-08-04T08:43:05.232Z,575.5
2018-08-04T08:44:07.689Z,575.6
2018-08-04T08:45:10.138Z,575.3
2018-08-04T08:46:12.772Z,575.7
2018-08-04T08:47:15.352Z,575.7
2018-08-04T08:48:17.573Z,575.5
2018-08-04T08:49:19.482Z,575.7
2018-08-04T08:50:21.635Z,575.9
2018-08-04T08:51:24.089Z,575.5
2018-08-04T08:52:26.532Z,575.8
2018-08-04T08:53:29.353Z,575.6
2018-08-04T08:54:31.704Z,575.7
2018-08-04T08:55:33.876Z,575.4
2018-08-04T08:56:36.342Z,575.7
2018-08-04T08:57:38.804Z,575.5
2018-08-04T08:58:41.259Z,575.9
2018-08-04T08:59:43.762Z,575.7
2018-08-04T09:00:46.217Z,576.1
2018-08-04T09:01:48.365Z,576
2018-08-04T09:02:50.820Z,575.7
2018-08-04T09:03:53.269Z,576.1
2018-08-04T09:04:55.454Z,576.4
2018-08-04T09:05:57.905Z,575.8
2018-08-04T09:07:00.403Z,576.2
2018-08-04T09:08:02.860Z,576
2018-08-04T09:09:05.048Z,576.4
2018-08-04T09:10:06.721Z,576.2
2018-08-04T09:11:08.920Z,576.3
2018-08-04T09:12:11.361Z,576.5
2018-08-04T09:13:13.562Z,576.4
2018-08-04T09:14:15.743Z,576.3
2018-08-04T09:15:18.197Z,576.3
2018-08-04T09:16:20.377Z,576.7
2018-08-04T09:17:22.827Z,576.4
2018-08-04T09:18:25.296Z,576.8
2018-08-04T09:19:27.765Z,576.7
2018-08-04T09:20:30.029Z,576.7
2018-08-04T09:21:32.523Z,576.8
2018-08-04T09:22:34.731Z,576.6
2018-08-04T09:23:36.907Z,576.9
2018-08-04T09:24:39.359Z,576.7
2018-08-04T09:25:41.544Z,576.8
2018-08-04T09:26:43.731Z,576.9
2018-08-04T09:27:46.188Z,576.7
2018-08-04T09:28:48.102Z,576.5
2018-08-04T09:29:50.285Z,576.6
2018-08-04T09:30:52.518Z,576.4
2018-08-04T09:31:55.038Z,576.3
2018-08-04T09:32:56.955Z,576.5
2018-08-04T09:33:59.415Z,576.6
2018-08-04T09:35:01.637Z,576.4
2018-08-04T09:36:03.823Z,576.4
2018-08-04T09:37:06.295Z,576.8
2018-08-04T09:38:08.455Z,576.6
2018-08-04T09:39:10.861Z,576.6
2018-08-04T09:40:13.149Z,576.9
2018-08-04T09:41:14.977Z,577.2
2018-08-04T09:42:17.422Z,576.8
2018-08-04T09:43:19.877Z,576.9
2018-08-04T09:44:22.040Z,576.7
2018-08-04T09:45:24.225Z,576.5
2018-08-04T09:46:26.118Z,576.4
2018-08-04T09:47:28.569Z,576.5
2018-08-04T09:48:30.740Z,576.8
2018-08-04T09:49:33.193Z,576.6
2018-08-04T09:50:35.807Z,576.7
2018-08-04T09:51:38.259Z,576.5
2018-08-04T09:52:40.144Z,576.9
2018-08-04T09:53:42.588Z,576.8
2018-08-04T09:54:45.054Z,576.5
2018-08-04T09:55:47.508Z,576.4
2018-08-04T09:56:49.398Z,576.7
2018-08-04T09:57:51.852Z,576.6
2018-08-04T09:58:54.005Z,576.8
2018-08-04T09:59:55.901Z,576.6
2018-08-04T10:00:57.814Z,576.7
2018-08-04T10:02:00.284Z,576.8
2018-08-04T10:03:02.471Z,576.7
2018-08-04T10:04:04.362Z,577
2018-08-04T10:05:06.742Z,576.9
2018-08-04T10:06:09.258Z,576.9
2018-08-04T10:07:11.711Z,576.6
2018-08-04T10:08:14.189Z,576.9
2018-08-04T10:09:16.080Z,576.1
2018-08-04T10:10:18.514Z,576.7
2018-08-04T10:11:21.044Z,576.7
2018-08-04T10:12:23.625Z,576.9
2018-08-04T10:13:25.847Z,576.8
2018-08-04T10:14:28.308Z,577
2018-08-04T10:15:30.774Z,577
2018-08-04T10:16:33.219Z,576.8
2018-08-04T10:17:35.687Z,577.2
2018-08-04T10:18:38.144Z,577
2018-08-04T10:19:40.022Z,577.1
2018-08-04T10:20:41.910Z,577.1
2018-08-04T10:21:44.100Z,577.3
2018-08-04T10:22:46.288Z,577.1
2018-08-04T10:23:48.482Z,577.5
2018-08-04T10:24:50.658Z,577.9
2018-08-04T10:25:52.843Z,577.5
2018-08-04T10:26:55.287Z,578.2
2018-08-04T10:27:57.478Z,577.8
2018-08-04T10:28:59.971Z,577.8
2018-08-04T10:30:02.148Z,578.1
2018-08-04T10:31:04.419Z,577.6
2018-08-04T10:32:07.701Z,577.9
2018-08-04T10:33:10.177Z,578.2
2018-08-04T10:34:12.645Z,577.9
2018-08-04T10:35:14.808Z,578
2018-08-04T10:36:17.000Z,577.6
2018-08-04T10:37:18.639Z,577.9
2018-08-04T10:38:20.530Z,578
2018-08-04T10:39:22.421Z,577.6
2018-08-04T10:40:24.593Z,577.9
2018-08-04T10:41:26.795Z,577.4
2018-08-04T10:42:28.981Z,577.7
2018-08-04T10:43:31.430Z,578
2018-08-04T10:44:33.877Z,578.2
2018-08-04T10:45:36.325Z,578.3
2018-08-04T10:46:38.433Z,578.6
2018-08-04T10:47:40.348Z,578.4
2018-08-04T10:48:42.830Z,577.8
2018-08-04T10:49:44.770Z,578.6
2018-08-04T10:50:47.250Z,578.5
2018-08-04T10:51:49.431Z,578.5
2018-08-04T10:52:51.615Z,578.9
2018-08-04T10:53:53.802Z,578.6
2018-08-04T10:54:55.708Z,579
2018-08-04T10:55:58.169Z,578.1
2018-08-04T10:57:00.961Z,578.6
2018-08-04T10:58:03.449Z,578.7
2018-08-04T10:59:05.369Z,578.6
2018-08-04T11:00:07.551Z,578.6
2018-08-04T11:01:09.993Z,578.6
2018-08-04T11:02:12.201Z,578.5
2018-08-04T11:03:14.390Z,578.3
2018-08-04T11:04:16.832Z,579
2018-08-04T11:05:19.287Z,578.4
2018-08-04T11:06:21.739Z,578.8
2018-08-04T11:07:24.202Z,578.6
2018-08-04T11:08:26.371Z,578.7
2018-08-04T11:09:28.574Z,579.4
2018-08-04T11:10:31.028Z,579.1
2018-08-04T11:11:32.940Z,579.3
2018-08-04T11:12:35.776Z,579.3
2018-08-04T11:13:38.206Z,579
2018-08-04T11:14:40.651Z,579.2
2018-08-04T11:15:43.088Z,579.3
2018-08-04T11:16:45.280Z,579.2
2018-08-04T11:17:47.456Z,579.8
2018-08-04T11:18:49.912Z,580.1
2018-08-04T11:19:52.115Z,580.2
2018-08-04T11:20:54.561Z,580.5
2018-08-04T11:21:57.016Z,580.1
2018-08-04T11:22:59.206Z,580
2018-08-04T11:24:01.427Z,580.4
2018-08-04T11:25:03.937Z,580.1
2018-08-04T11:26:06.388Z,580.4
2018-08-04T11:27:08.570Z,580.7
2018-08-04T11:28:11.030Z,580.1
2018-08-04T11:29:13.212Z,580.1
2018-08-04T11:30:15.668Z,580
2018-08-04T11:31:18.115Z,580.1
2018-08-04T11:32:20.572Z,580.3
2018-08-04T11:33:22.757Z,580.1
2018-08-04T11:34:25.211Z,580.2
2018-08-04T11:35:27.657Z,580.4
2018-08-04T11:36:29.799Z,580.7
2018-08-04T11:37:32.256Z,580.7
2018-08-04T11:38:34.432Z,580.3
2018-08-04T11:39:37.245Z,580.5
2018-08-04T11:40:39.730Z,580.3
2018-08-04T11:41:41.915Z,580.2
2018-08-04T11:42:44.068Z,580.3
2018-08-04T11:43:46.237Z,580.1
2018-08-04T11:44:48.431Z,580
2018-08-04T11:45:50.879Z,580.1
2018-08-04T11:46:53.359Z,580
2018-08-04T11:47:55.519Z,580.5
2018-08-04T11:48:57.976Z,580.5
2018-08-04T11:50:00.157Z,580.8
2018-08-04T11:51:02.616Z,580.8
2018-08-04T11:52:04.797Z,580.8
2018-08-04T11:53:07.270Z,581.2
2018-08-04T11:54:09.744Z,581
2018-08-04T11:55:11.914Z,581.2
2018-08-04T11:56:14.378Z,581.2
2018-08-04T11:57:15.976Z,580.9
2018-08-04T11:58:18.610Z,581.2
2018-08-04T11:59:20.805Z,581.5
2018-08-04T12:00:23.006Z,581.8
2018-08-04T12:01:25.447Z,581.8
2018-08-04T12:02:27.907Z,581.9
2018-08-04T12:03:30.366Z,582
2018-08-04T12:04:32.266Z,581.9
2018-08-04T12:05:34.472Z,582.4
2018-08-04T12:06:36.688Z,582.2
2018-08-04T12:07:38.865Z,582.4
2018-08-04T12:08:41.315Z,582.6
2018-08-04T12:09:43.502Z,582.5
2018-08-04T12:10:45.671Z,582.9
2018-08-04T12:11:48.135Z,583.1
2018-08-04T12:12:50.308Z,583.3
2018-08-04T12:13:52.455Z,583.5
2018-08-04T12:14:54.653Z,583.5
2018-08-04T12:15:56.818Z,583.7
2018-08-04T12:16:59.269Z,583.5
2018-08-04T12:18:01.804Z,583.7
2018-08-04T12:19:04.258Z,583.6
2018-08-04T12:20:06.445Z,583.6
2018-08-04T12:21:08.889Z,584.1
2018-08-04T12:22:11.347Z,583.9
2018-08-04T12:23:13.946Z,584.1
2018-08-04T12:24:15.578Z,583.8
2018-08-04T12:25:17.746Z,583.9
2018-08-04T12:26:19.918Z,584.4
2018-08-04T12:27:21.564Z,584.5
2018-08-04T12:28:23.458Z,584.6
2018-08-04T12:29:25.912Z,584.9
2018-08-04T12:30:27.557Z,584.5
2018-08-04T12:31:30.171Z,584.2
2018-08-04T12:32:32.138Z,584.8
2018-08-04T12:33:34.581Z,584.6
2018-08-04T12:34:36.726Z,584.7
2018-08-04T12:35:39.190Z,584.4
2018-08-04T12:36:41.839Z,584.2
2018-08-04T12:37:44.043Z,584.6
2018-08-04T12:38:46.227Z,584.5
2018-08-04T12:39:48.104Z,584.5
2018-08-04T12:40:50.709Z,584.7
2018-08-04T12:41:53.159Z,584.8
2018-08-04T12:42:55.092Z,584.5
2018-08-04T12:43:57.537Z,584
2018-08-04T12:44:59.983Z,584.3
2018-08-04T12:46:01.889Z,584.6
2018-08-04T12:47:03.809Z,584.7
2018-08-04T12:48:06.006Z,585.2
2018-08-04T12:49:08.200Z,585.1
2018-08-04T12:50:10.098Z,584.8
2018-08-04T12:51:12.546Z,585.1
2018-08-04T12:52:14.728Z,584.8
2018-08-04T12:53:16.917Z,585.2
2018-08-04T12:54:19.186Z,585.4
2018-08-04T12:55:21.368Z,585
2018-08-04T12:56:23.539Z,585.7
2018-08-04T12:57:26.087Z,586.3
2018-08-04T12:58:28.342Z,585.6
2018-08-04T12:59:30.898Z,585.5
2018-08-04T13:00:33.078Z,585.8
2018-08-04T13:01:35.519Z,585.9
2018-08-04T13:02:37.968Z,586.1
2018-08-04T13:03:39.803Z,586.5
2018-08-04T13:04:42.274Z,586.2
2018-08-04T13:05:44.737Z,585.8
2018-08-04T13:06:46.933Z,586
2018-08-04T13:07:49.095Z,585.5
2018-08-04T13:08:51.884Z,585.5
2018-08-04T13:09:53.856Z,586.2
2018-08-04T13:10:56.064Z,586.5
2018-08-04T13:11:58.424Z,586.3
2018-08-04T13:13:00.919Z,586.7
2018-08-04T13:14:03.373Z,586.4
2018-08-04T13:15:05.834Z,586.3
2018-08-04T13:16:08.292Z,586.2
2018-08-04T13:17:10.468Z,585.9
2018-08-04T13:18:12.380Z,585.6
2018-08-04T13:19:14.540Z,586.3
2018-08-04T13:20:16.998Z,586.3
2018-08-04T13:21:19.177Z,586.2
2018-08-04T13:22:21.356Z,586.7
2018-08-04T13:23:23.500Z,586.6
2018-08-04T13:24:25.963Z,586.9
2018-08-04T13:25:27.844Z,586.9
2018-08-04T13:26:30.046Z,586.9